Time;durP1;ratioP1;P1;durP2;ratioP2;P2;SDS_P1;SDS_P2;PMS_P1;PMS_P2;Temp;Humidity;BMP_temperature;BMP_pressure;BME280_temperature;BME280_humidity;BME280_pressure;Samples;Min_cycle;Max_cycle;Signal;HPM_P1;HPM_P2
2023/03/24 00:01:22;;;;;;;4.40;3.23;;;13.90;99.90;;;;;;5020875;28;20588;-70
2023/03/24 00:04:08;;;;;;;13.43;4.33;;;13.90;99.90;;;;;;5017897;28;20567;-72
2023/03/24 00:06:55;;;;;;;4.97;3.27;;;13.80;99.90;;;;;;5016681;28;20466;-72
2023/03/24 00:09:42;;;;;;;7.50;2.73;;;13.70;99.90;;;;;;5019193;28;20447;-72
2023/03/24 00:12:27;;;;;;;6.77;3.10;;;13.70;99.90;;;;;;5042306;22;20538;-72
2023/03/24 00:15:15;;;;;;;10.67;3.50;;;13.60;99.90;;;;;;5024485;28;20455;-72
2023/03/24 00:18:01;;;;;;;7.70;3.10;;;13.60;99.90;;;;;;5028094;28;20488;-72
2023/03/24 00:20:47;;;;;;;10.10;3.50;;;13.60;99.90;;;;;;5025309;28;20458;-72
2023/03/24 00:23:34;;;;;;;6.13;3.30;;;13.60;99.90;;;;;;5004502;28;20554;-72
2023/03/24 00:26:23;;;;;;;4.87;3.17;;;13.60;99.90;;;;;;5007890;28;20501;-72
2023/03/24 00:29:12;;;;;;;6.07;3.40;;;13.50;99.90;;;;;;5009761;28;20564;-72
2023/03/24 00:31:58;;;;;;;5.87;3.17;;;13.50;99.90;;;;;;5003688;28;20469;-72
2023/03/24 00:34:44;;;;;;;4.60;2.80;;;13.50;99.90;;;;;;5009111;28;20460;-72
2023/03/24 00:37:30;;;;;;;6.07;3.50;;;13.40;99.90;;;;;;5007671;28;20586;-72
2023/03/24 00:40:19;;;;;;;4.50;3.00;;;13.50;99.90;;;;;;5008508;28;20527;-72
2023/03/24 00:43:05;;;;;;;10.73;4.00;;;13.40;99.90;;;;;;5003600;28;20894;-72
2023/03/24 00:45:51;;;;;;;5.40;3.10;;;13.40;99.90;;;;;;5011419;28;20451;-72
2023/03/24 00:48:37;;;;;;;16.33;3.30;;;13.40;99.90;;;;;;5010495;28;20546;-72
2023/03/24 00:51:22;;;;;;;9.17;4.00;;;13.30;99.90;;;;;;5008327;28;20490;-73
2023/03/24 00:54:11;;;;;;;4.87;3.23;;;13.20;99.90;;;;;;5011408;28;20559;-72
2023/03/24 00:57:01;;;;;;;6.60;4.03;;;13.20;99.90;;;;;;5009596;28;20831;-72
2023/03/24 00:59:47;;;;;;;10.63;3.87;;;13.00;99.90;;;;;;5009227;28;20431;-72
2023/03/24 01:02:33;;;;;;;5.80;3.70;;;13.10;99.90;;;;;;5006451;28;20889;-73
2023/03/24 01:05:20;;;;;;;9.07;3.87;;;13.10;99.90;;;;;;5008099;28;20448;-72
2023/03/24 01:08:06;;;;;;;3.87;2.70;;;13.00;99.90;;;;;;5010135;28;20450;-72
2023/03/24 01:10:53;;;;;;;5.80;3.63;;;13.00;99.90;;;;;;5003904;28;20455;-72
2023/03/24 01:13:40;;;;;;;5.10;2.80;;;12.90;99.90;;;;;;5012786;28;20863;-72
2023/03/24 01:16:26;;;;;;;4.00;2.80;;;12.90;99.90;;;;;;5013572;28;20440;-72
2023/03/24 01:19:13;;;;;;;8.17;3.50;;;12.80;99.90;;;;;;5006849;28;20458;-72
2023/03/24 01:21:59;;;;;;;6.03;3.30;;;12.80;99.90;;;;;;5009591;28;20488;-72
2023/03/24 01:24:45;;;;;;;6.20;3.00;;;12.80;99.90;;;;;;5005838;28;20900;-72
2023/03/24 01:27:30;;;;;;;5.20;3.00;;;12.80;99.90;;;;;;5007618;28;20499;-72
2023/03/24 01:30:21;;;;;;;5.13;3.30;;;12.70;99.90;;;;;;5009276;28;20940;-72
2023/03/24 01:33:07;;;;;;;10.23;2.83;;;12.70;99.90;;;;;;5010951;28;20493;-72
2023/03/24 01:35:53;;;;;;;4.97;3.00;;;12.70;99.90;;;;;;5008738;28;20926;-72
2023/03/24 01:38:39;;;;;;;9.47;3.47;;;12.70;99.90;;;;;;5010284;28;20487;-72
2023/03/24 01:41:25;;;;;;;6.70;3.80;;;12.70;99.90;;;;;;5007984;28;20841;-72
2023/03/24 01:44:29;;;;;;;7.77;3.30;;;12.70;99.90;;;;;;5009583;28;20451;-72
2023/03/24 01:47:17;;;;;;;4.57;3.30;;;12.70;99.90;;;;;;5010003;28;20429;-72
2023/03/24 01:50:04;;;;;;;5.03;3.07;;;12.70;99.90;;;;;;5009517;28;20550;-72
2023/03/24 01:52:50;;;;;;;6.40;3.10;;;12.80;99.90;;;;;;5006521;28;20470;-72
2023/03/24 01:55:35;;;;;;;3.27;2.60;;;12.80;99.90;;;;;;5009248;28;20948;-72
2023/03/24 01:58:24;;;;;;;5.30;3.37;;;12.80;99.90;;;;;;5006049;28;20457;-72
2023/03/24 02:01:11;;;;;;;5.83;3.07;;;12.80;99.90;;;;;;5005058;28;20820;-72
2023/03/24 02:04:02;;;;;;;4.97;2.97;;;12.80;99.90;;;;;;5010634;28;20561;-72
2023/03/24 02:06:48;;;;;;;5.50;2.70;;;12.70;99.90;;;;;;5008219;28;20451;-72
2023/03/24 02:09:33;;;;;;;3.17;2.60;;;12.80;99.90;;;;;;5004461;28;20456;-73
2023/03/24 02:12:19;;;;;;;10.17;3.13;;;12.80;99.90;;;;;;5002656;28;20855;-73
2023/03/24 02:15:07;;;;;;;9.00;3.00;;;12.80;99.90;;;;;;5008107;28;20453;-72
2023/03/24 02:18:02;;;;;;;6.13;3.20;;;12.80;99.90;;;;;;5010044;28;20464;-72
2023/03/24 02:21:29;;;;;;;3.43;2.60;;;12.80;99.90;;;;;;5003602;28;20488;-72
2023/03/24 02:24:53;;;;;;;4.73;3.23;;;12.80;99.90;;;;;;5007872;28;20451;-72
2023/03/24 02:28:01;;;;;;;6.73;3.10;;;12.80;99.90;;;;;;5007385;28;20813;-72
2023/03/24 02:31:12;;;;;;;3.70;2.80;;;12.80;99.90;;;;;;5001243;28;20931;-72
2023/03/24 02:34:43;;;;;;;6.93;4.20;;;12.80;99.90;;;;;;5001060;28;20431;-72
2023/03/24 02:38:14;;;;;;;8.70;3.70;;;12.80;99.90;;;;;;5011572;28;20542;-72
2023/03/24 02:41:12;;;;;;;4.13;3.10;;;12.80;99.90;;;;;;5001306;28;20470;-72
2023/03/24 02:44:06;;;;;;;6.17;3.37;;;12.80;99.90;;;;;;5008149;28;20843;-72
2023/03/24 02:46:56;;;;;;;7.53;3.60;;;12.80;99.90;;;;;;5009624;28;20510;-72
2023/03/24 02:49:48;;;;;;;5.43;2.90;;;12.90;99.90;;;;;;5002287;28;20453;-72
2023/03/24 02:52:39;;;;;;;4.97;3.10;;;13.00;99.90;;;;;;5005439;28;20454;-72
2023/03/24 02:55:32;;;;;;;4.10;2.90;;;13.00;99.90;;;;;;5006973;28;20439;-72
2023/03/24 02:58:23;;;;;;;5.50;2.67;;;13.10;99.90;;;;;;5005658;28;20452;-72
2023/03/24 03:01:14;;;;;;;4.27;2.83;;;13.20;99.90;;;;;;5005739;28;20634;-72
2023/03/24 03:04:04;;;;;;;5.77;2.33;;;13.30;99.90;;;;;;5005746;28;20483;-72
2023/03/24 03:06:55;;;;;;;7.00;2.63;;;13.50;99.90;;;;;;5006453;28;20527;-72
2023/03/24 03:09:47;;;;;;;5.13;2.90;;;13.70;99.90;;;;;;5005533;28;20972;-72
2023/03/24 03:12:36;;;;;;;3.80;2.40;;;13.90;99.90;;;;;;5008286;28;21132;-73
2023/03/24 03:15:27;;;;;;;4.07;2.63;;;14.10;99.90;;;;;;5006331;28;20515;-72
2023/03/24 03:18:20;;;;;;;3.63;2.40;;;14.30;99.90;;;;;;5006979;28;20451;-72
2023/03/24 03:21:10;;;;;;;3.50;2.63;;;14.50;99.90;;;;;;5010273;28;20463;-72
2023/03/24 03:23:58;;;;;;;7.67;3.50;;;14.80;99.90;;;;;;5006516;28;20838;-72
2023/03/24 03:26:48;;;;;;;4.40;2.70;;;14.90;99.90;;;;;;5010403;28;20456;-72
2023/03/24 03:29:36;;;;;;;5.23;2.60;;;15.00;99.90;;;;;;5003159;28;20825;-72
2023/03/24 03:32:28;;;;;;;3.63;2.50;;;15.10;99.70;;;;;;5009504;28;20455;-72
2023/03/24 03:35:17;;;;;;;4.80;2.77;;;15.10;98.60;;;;;;5009704;28;20626;-72
2023/03/24 03:38:10;;;;;;;3.50;2.40;;;15.20;98.50;;;;;;5006059;28;20453;-72
2023/03/24 03:40:58;;;;;;;5.00;3.07;;;15.20;98.70;;;;;;5004589;28;20506;-72
2023/03/24 03:43:44;;;;;;;3.33;2.73;;;15.20;97.40;;;;;;5007758;28;20480;-72
2023/03/24 03:46:30;;;;;;;3.70;2.47;;;15.20;97.20;;;;;;5009864;28;20493;-72
2023/03/24 03:49:17;;;;;;;3.40;2.37;;;15.20;97.80;;;;;;5004751;28;20516;-72
2023/03/24 03:52:03;;;;;;;16.13;3.10;;;15.20;98.10;;;;;;5008187;28;20490;-72
2023/03/24 03:54:50;;;;;;;4.67;2.87;;;15.20;98.00;;;;;;5005084;28;20449;-72
2023/03/24 03:57:36;;;;;;;4.03;2.83;;;15.20;98.50;;;;;;5008834;28;20455;-72
2023/03/24 04:00:23;;;;;;;4.37;3.30;;;15.20;98.30;;;;;;5006673;28;20830;-72
2023/03/24 04:03:33;;;;;;;5.03;2.47;;;15.30;96.90;;;;;;5005206;28;20453;-72
2023/03/24 04:06:30;;;;;;;4.70;3.33;;;15.40;95.70;;;;;;5007113;28;20447;-72
2023/03/24 04:09:31;;;;;;;5.00;2.83;;;15.40;95.40;;;;;;5004445;28;20795;-72
2023/03/24 04:12:40;;;;;;;3.60;2.70;;;15.50;94.20;;;;;;5007653;28;20497;-72
2023/03/24 04:15:36;;;;;;;4.80;3.10;;;15.50;93.80;;;;;;5003530;28;20438;-72
2023/03/24 04:18:45;;;;;;;4.50;3.30;;;15.50;94.70;;;;;;5002841;28;20455;-72
2023/03/24 04:21:47;;;;;;;5.00;3.17;;;15.50;95.00;;;;;;5008925;28;20483;-72
2023/03/24 04:24:43;;;;;;;4.07;2.50;;;15.40;94.40;;;;;;5006776;28;20478;-72
2023/03/24 04:27:37;;;;;;;4.00;2.80;;;15.40;94.60;;;;;;5006674;28;20505;-72
2023/03/24 04:30:29;;;;;;;3.83;2.90;;;15.50;94.80;;;;;;5005986;28;20439;-72
2023/03/24 04:33:21;;;;;;;5.80;3.47;;;15.50;95.20;;;;;;5008448;28;20984;-72
2023/03/24 04:36:17;;;;;;;5.53;3.57;;;15.40;96.30;;;;;;5006186;28;20561;-72
2023/03/24 04:39:04;;;;;;;5.20;3.60;;;15.40;97.20;;;;;;5004152;28;20811;-72
2023/03/24 04:41:51;;;;;;;7.87;3.20;;;15.40;97.20;;;;;;5004796;28;20473;-72
2023/03/24 04:44:37;;;;;;;4.90;3.73;;;15.40;98.20;;;;;;5007286;28;21012;-72
2023/03/24 04:47:27;;;;;;;9.80;3.70;;;15.30;99.00;;;;;;5001945;28;20452;-73
2023/03/24 04:50:13;;;;;;;8.80;3.90;;;15.30;99.90;;;;;;5009082;28;20446;-72
2023/03/24 04:52:59;;;;;;;5.87;4.10;;;15.20;99.90;;;;;;5004996;28;20467;-72
2023/03/24 04:55:57;;;;;;;4.50;2.80;;;15.10;99.90;;;;;;5005872;28;20445;-72
2023/03/24 04:58:42;;;;;;;10.97;3.40;;;15.10;99.90;;;;;;5006376;28;20446;-72
2023/03/24 05:01:29;;;;;;;4.50;3.77;;;15.00;99.90;;;;;;5008831;28;20495;-72
2023/03/24 05:04:14;;;;;;;5.50;3.57;;;15.00;99.90;;;;;;5004483;28;20575;-71
2023/03/24 05:07:00;;;;;;;5.17;4.03;;;14.90;99.90;;;;;;4999493;28;21012;-72
2023/03/24 05:09:46;;;;;;;7.37;3.63;;;14.90;99.90;;;;;;5009553;28;20572;-72
2023/03/24 05:12:33;;;;;;;10.17;4.30;;;14.80;99.90;;;;;;5011905;28;20473;-72
2023/03/24 05:15:19;;;;;;;6.20;4.20;;;14.70;99.90;;;;;;5010531;28;20976;-72
2023/03/24 05:18:05;;;;;;;4.73;4.07;;;14.60;99.90;;;;;;5008588;28;20423;-72
2023/03/24 05:20:52;;;;;;;6.97;4.43;;;14.50;99.90;;;;;;5010258;28;20458;-72
2023/03/24 05:23:38;;;;;;;8.10;3.90;;;14.40;99.90;;;;;;5005671;28;21054;-72
2023/03/24 05:26:25;;;;;;;6.40;4.60;;;14.30;99.90;;;;;;5011479;28;20456;-72
2023/03/24 05:29:12;;;;;;;7.70;4.90;;;14.20;99.90;;;;;;5008324;28;20501;-72
2023/03/24 05:31:57;;;;;;;7.93;4.73;;;14.20;99.90;;;;;;5009192;28;20487;-72
2023/03/24 05:34:43;;;;;;;8.20;4.40;;;14.10;99.90;;;;;;5011776;28;20935;-72
2023/03/24 05:37:29;;;;;;;5.90;4.83;;;14.00;99.90;;;;;;5004087;28;20564;-72
2023/03/24 05:40:15;;;;;;;5.87;5.20;;;13.90;99.90;;;;;;5008643;28;20958;-72
2023/03/24 05:43:00;;;;;;;9.90;5.50;;;13.90;99.90;;;;;;5007538;28;20610;-72
2023/03/24 05:45:47;;;;;;;7.40;4.70;;;13.80;99.90;;;;;;5010169;28;20456;-72
2023/03/24 05:48:33;;;;;;;6.10;4.40;;;13.90;99.90;;;;;;5005234;28;20462;-72
2023/03/24 05:51:18;;;;;;;7.30;4.80;;;13.80;99.90;;;;;;5010047;28;20516;-72
2023/03/24 05:54:06;;;;;;;6.90;4.93;;;13.80;99.90;;;;;;5008957;28;20440;-72
2023/03/24 05:56:52;;;;;;;9.80;5.80;;;13.80;99.90;;;;;;5008058;28;20459;-71
2023/03/24 05:59:38;;;;;;;5.70;4.10;;;13.80;99.90;;;;;;5011023;28;21211;-72
2023/03/24 06:02:25;;;;;;;6.60;4.97;;;13.80;99.90;;;;;;5008008;28;20477;-72
2023/03/24 06:05:11;;;;;;;8.00;5.30;;;13.80;99.90;;;;;;5008009;28;20547;-72
2023/03/24 06:08:00;;;;;;;6.33;4.60;;;13.80;99.90;;;;;;5000780;28;20452;-72
2023/03/24 06:10:47;;;;;;;4.60;3.77;;;13.70;99.90;;;;;;5008899;28;20811;-72
2023/03/24 06:13:33;;;;;;;6.00;4.20;;;13.70;99.90;;;;;;5033646;22;21032;-73
2023/03/24 06:16:22;;;;;;;5.73;4.53;;;13.70;99.90;;;;;;5010967;28;20458;-72
2023/03/24 06:19:09;;;;;;;5.47;4.13;;;13.70;99.90;;;;;;5001657;28;20459;-73
2023/03/24 06:21:55;;;;;;;5.13;4.20;;;13.80;99.90;;;;;;5011246;28;20460;-70
2023/03/24 06:24:41;;;;;;;6.03;4.47;;;13.70;99.90;;;;;;5005272;28;20709;-71
2023/03/24 06:27:29;;;;;;;8.33;4.47;;;13.70;99.90;;;;;;5003154;28;21226;-71
2023/03/24 06:30:16;;;;;;;6.80;4.03;;;13.60;99.90;;;;;;5008790;28;20447;-71
2023/03/24 06:33:02;;;;;;;4.83;4.00;;;13.70;99.90;;;;;;4998833;28;20549;-70
2023/03/24 06:35:50;;;;;;;10.30;4.30;;;13.80;99.90;;;;;;4997855;28;20487;-71
2023/03/24 06:38:36;;;;;;;6.33;3.87;;;13.80;99.90;;;;;;4996864;28;20955;-71
2023/03/24 06:41:22;;;;;;;5.23;3.80;;;13.80;99.90;;;;;;5000954;28;20540;-71
2023/03/24 06:44:07;;;;;;;4.40;4.00;;;13.80;99.90;;;;;;5004342;28;20614;-70
2023/03/24 06:46:53;;;;;;;4.80;4.30;;;13.80;99.90;;;;;;5002428;28;20484;-70
2023/03/24 06:49:39;;;;;;;5.93;4.17;;;13.80;99.90;;;;;;5002305;28;20430;-70
2023/03/24 06:52:27;;;;;;;6.73;4.23;;;13.80;99.90;;;;;;5001844;28;20555;-71
2023/03/24 06:55:13;;;;;;;7.43;3.70;;;13.80;99.90;;;;;;4997203;28;20439;-71
2023/03/24 06:57:58;;;;;;;4.40;4.00;;;13.80;99.90;;;;;;5006322;28;20453;-71
2023/03/24 07:00:45;;;;;;;6.03;4.70;;;13.80;99.90;;;;;;4997073;28;20459;-71
2023/03/24 07:03:31;;;;;;;7.03;4.40;;;13.80;99.90;;;;;;5001156;28;21016;-70
2023/03/24 07:06:17;;;;;;;4.50;4.10;;;13.80;99.90;;;;;;5004788;28;21050;-71
2023/03/24 07:09:04;;;;;;;4.57;4.10;;;13.90;99.90;;;;;;5000780;28;20469;-70
2023/03/24 07:11:50;;;;;;;7.50;4.33;;;13.90;99.90;;;;;;5000952;28;20906;-70
2023/03/24 07:14:35;;;;;;;6.30;5.37;;;13.90;99.90;;;;;;5007529;28;20440;-71
2023/03/24 07:17:21;;;;;;;8.60;4.73;;;13.90;99.90;;;;;;5004371;28;20441;-70
2023/03/24 07:20:08;;;;;;;10.97;4.90;;;13.90;99.90;;;;;;4995299;28;20445;-70
2023/03/24 07:22:56;;;;;;;8.30;4.80;;;13.90;99.90;;;;;;4999829;28;20505;-70
2023/03/24 07:25:43;;;;;;;7.67;5.67;;;13.90;99.90;;;;;;4996093;28;20839;-71
2023/03/24 07:28:29;;;;;;;5.37;4.87;;;13.90;99.90;;;;;;5005713;28;21151;-71
2023/03/24 07:31:14;;;;;;;5.70;4.90;;;13.90;99.90;;;;;;5000077;28;20827;-71
2023/03/24 07:34:00;;;;;;;5.50;4.90;;;13.90;99.90;;;;;;5003083;28;20818;-71
2023/03/24 07:36:46;;;;;;;6.63;5.17;;;13.90;99.90;;;;;;4998342;28;20577;-71
2023/03/24 07:39:32;;;;;;;9.63;5.53;;;13.90;99.90;;;;;;4993728;28;21505;-70
2023/03/24 07:42:19;;;;;;;6.20;5.47;;;13.90;99.90;;;;;;5004148;28;21106;-71
2023/03/24 07:45:07;;;;;;;6.50;5.00;;;13.90;99.90;;;;;;5001165;28;20489;-72
2023/03/24 07:47:53;;;;;;;7.50;5.97;;;14.00;99.90;;;;;;4999549;28;20821;-71
2023/03/24 07:50:38;;;;;;;11.60;6.97;;;14.00;99.90;;;;;;5005841;28;20502;-72
2023/03/24 07:53:24;;;;;;;10.40;6.40;;;14.00;99.90;;;;;;4998244;28;20484;-72
2023/03/24 07:56:10;;;;;;;5.77;5.17;;;14.00;99.90;;;;;;5005076;28;20476;-72
2023/03/24 07:58:57;;;;;;;9.43;4.50;;;14.00;99.90;;;;;;4996582;28;20978;-71
2023/03/24 08:01:43;;;;;;;13.87;6.10;;;13.90;99.90;;;;;;5002891;28;20473;-71
2023/03/24 08:04:30;;;;;;;6.27;4.77;;;13.90;99.90;;;;;;4999056;28;20475;-71
2023/03/24 08:07:19;;;;;;;5.90;5.30;;;13.90;99.90;;;;;;5003041;28;20524;-71
2023/03/24 08:10:06;;;;;;;5.40;4.80;;;13.90;99.90;;;;;;5006072;28;20930;-71
2023/03/24 08:12:52;;;;;;;6.40;5.30;;;14.00;99.90;;;;;;5005592;28;20798;-72
2023/03/24 08:15:38;;;;;;;6.17;5.17;;;14.00;99.90;;;;;;5008847;28;20205;-72
2023/03/24 08:18:25;;;;;;;7.17;4.97;;;14.00;99.90;;;;;;5003255;28;20485;-71
2023/03/24 08:21:10;;;;;;;7.20;5.60;;;14.00;99.90;;;;;;5000722;28;21456;-71
2023/03/24 08:23:56;;;;;;;5.77;4.00;;;14.00;99.90;;;;;;5003801;28;21138;-71
2023/03/24 08:26:42;;;;;;;9.40;4.87;;;14.00;99.90;;;;;;4997968;28;20497;-72
2023/03/24 08:29:27;;;;;;;9.33;5.50;;;14.00;99.90;;;;;;5000768;28;20456;-71
2023/03/24 08:32:14;;;;;;;5.13;4.43;;;14.00;99.90;;;;;;5003949;28;20599;-71
2023/03/24 08:35:00;;;;;;;5.87;4.90;;;14.00;99.90;;;;;;5004077;28;20552;-71
2023/03/24 08:37:45;;;;;;;5.63;3.90;;;14.00;99.90;;;;;;5004271;28;20435;-71
2023/03/24 08:40:33;;;;;;;4.90;4.40;;;13.90;99.90;;;;;;5004698;28;20447;-71
2023/03/24 08:43:22;;;;;;;4.80;4.03;;;14.00;99.90;;;;;;5005356;28;20466;-71
2023/03/24 08:46:09;;;;;;;6.03;4.00;;;14.00;99.90;;;;;;5006130;28;20447;-71
2023/03/24 08:48:56;;;;;;;7.90;4.57;;;14.00;99.90;;;;;;5007770;28;20535;-71
2023/03/24 08:51:42;;;;;;;6.33;4.50;;;14.00;99.90;;;;;;4995542;28;20833;-71
2023/03/24 08:54:27;;;;;;;7.37;5.13;;;14.00;99.90;;;;;;5009301;28;20520;-71
2023/03/24 08:57:13;;;;;;;4.30;3.80;;;14.00;99.90;;;;;;5000894;28;20490;-71
2023/03/24 08:59:59;;;;;;;5.37;3.90;;;14.00;99.90;;;;;;5001413;28;20452;-71
2023/03/24 09:02:46;;;;;;;5.70;3.80;;;13.90;99.90;;;;;;5005167;28;20470;-71
2023/03/24 09:05:33;;;;;;;8.57;4.03;;;13.90;99.90;;;;;;4997736;28;20627;-71
2023/03/24 09:08:19;;;;;;;6.67;3.93;;;13.90;99.90;;;;;;5001052;28;21250;-71
2023/03/24 09:11:05;;;;;;;5.87;4.60;;;13.90;99.90;;;;;;5010915;28;20434;-71
2023/03/24 09:13:51;;;;;;;4.47;3.83;;;13.90;99.90;;;;;;5004194;28;20449;-71
2023/03/24 09:16:37;;;;;;;8.73;6.07;;;13.90;99.90;;;;;;4996033;28;20453;-71
2023/03/24 09:19:22;;;;;;;5.73;4.30;;;13.90;99.90;;;;;;4997537;28;20419;-71
2023/03/24 09:22:10;;;;;;;5.53;3.50;;;13.90;99.90;;;;;;5009165;28;20509;-72
2023/03/24 09:24:55;;;;;;;4.97;4.07;;;13.90;99.90;;;;;;5002959;28;20990;-71
2023/03/24 09:27:41;;;;;;;6.90;3.40;;;13.90;99.90;;;;;;5006373;28;20451;-72
2023/03/24 09:30:26;;;;;;;5.60;3.73;;;13.90;99.90;;;;;;5004836;28;20574;-71
2023/03/24 09:33:12;;;;;;;7.10;3.93;;;13.90;99.90;;;;;;5006578;28;20430;-71
2023/03/24 09:36:00;;;;;;;4.40;3.17;;;13.90;99.90;;;;;;5003384;28;20575;-71
2023/03/24 09:38:47;;;;;;;9.33;4.17;;;13.90;99.90;;;;;;5005687;28;20447;-71
2023/03/24 09:41:33;;;;;;;3.70;2.70;;;14.00;99.90;;;;;;5005821;28;20571;-72
2023/03/24 09:44:25;;;;;;;3.40;3.00;;;14.00;99.90;;;;;;5005798;28;20481;-71
2023/03/24 09:47:23;;;;;;;5.00;4.30;;;14.00;99.90;;;;;;5006615;28;20978;-71
2023/03/24 09:50:19;;;;;;;4.03;3.63;;;14.00;99.90;;;;;;5003942;28;20514;-71
2023/03/24 09:53:09;;;;;;;3.70;2.70;;;14.00;99.90;;;;;;5003778;28;20461;-71
2023/03/24 09:56:00;;;;;;;4.70;3.90;;;14.00;99.90;;;;;;4996912;28;20815;-72
2023/03/24 09:58:53;;;;;;;4.83;3.80;;;14.00;99.90;;;;;;5005820;28;20508;-72
2023/03/24 10:01:38;;;;;;;4.63;3.40;;;14.00;99.90;;;;;;5003039;28;20796;-72
2023/03/24 10:04:26;;;;;;;5.53;3.27;;;14.00;99.90;;;;;;5001693;28;20839;-71
2023/03/24 10:07:18;;;;;;;5.63;3.67;;;14.00;99.90;;;;;;4999079;28;20447;-71
2023/03/24 10:10:14;;;;;;;5.50;3.90;;;14.00;99.90;;;;;;5000464;28;20453;-71
2023/03/24 10:13:07;;;;;;;4.00;3.60;;;14.00;99.90;;;;;;5000684;28;20544;-71
2023/03/24 10:16:00;;;;;;;6.37;4.10;;;14.10;99.90;;;;;;5003342;28;20501;-71
2023/03/24 10:18:52;;;;;;;5.20;3.63;;;14.10;99.90;;;;;;5006917;28;20447;-71
2023/03/24 10:21:41;;;;;;;5.50;2.90;;;14.10;99.90;;;;;;4999049;28;20456;-71
2023/03/24 10:24:33;;;;;;;6.60;3.93;;;14.10;99.90;;;;;;5002037;28;20569;-71
2023/03/24 10:27:26;;;;;;;6.70;3.30;;;14.20;99.90;;;;;;5004094;28;20452;-71
2023/03/24 10:30:17;;;;;;;3.90;3.50;;;14.20;99.90;;;;;;5000662;28;20460;-71
2023/03/24 10:33:03;;;;;;;4.43;3.17;;;14.20;99.90;;;;;;5001215;28;20912;-72
2023/03/24 10:35:58;;;;;;;3.80;2.93;;;14.20;99.90;;;;;;5000540;28;20438;-72
2023/03/24 10:38:45;;;;;;;4.33;3.20;;;14.30;99.90;;;;;;4998885;28;20496;-71
2023/03/24 10:41:33;;;;;;;8.23;3.03;;;14.30;99.90;;;;;;5002696;28;20458;-71
2023/03/24 10:44:18;;;;;;;3.93;3.30;;;14.20;99.90;;;;;;4999961;28;20558;-71
2023/03/24 10:47:08;;;;;;;6.40;3.50;;;14.20;99.90;;;;;;4999526;28;20961;-71
2023/03/24 10:49:55;;;;;;;4.40;3.63;;;14.20;99.90;;;;;;4995557;28;20494;-71
2023/03/24 10:52:44;;;;;;;6.93;3.77;;;14.20;99.90;;;;;;5002448;28;20475;-72
2023/03/24 10:55:31;;;;;;;3.97;3.20;;;14.10;99.90;;;;;;4999476;28;20521;-71
2023/03/24 10:58:24;;;;;;;4.90;2.67;;;14.10;99.90;;;;;;5005902;28;20453;-71
2023/03/24 11:01:22;;;;;;;6.70;3.80;;;14.10;99.90;;;;;;5004250;28;20892;-71
2023/03/24 11:04:15;;;;;;;4.70;3.80;;;14.10;99.90;;;;;;4996343;28;20456;-72
2023/03/24 11:07:05;;;;;;;4.50;2.87;;;14.10;99.90;;;;;;5004258;28;20502;-72
2023/03/24 11:10:00;;;;;;;3.90;2.73;;;14.10;99.90;;;;;;5011720;28;20554;-71
2023/03/24 11:13:02;;;;;;;2.60;2.30;;;14.10;99.90;;;;;;4998302;28;20486;-71
2023/03/24 11:15:55;;;;;;;3.90;2.67;;;14.10;99.90;;;;;;4997239;28;20455;-71
2023/03/24 11:18:56;;;;;;;4.70;3.10;;;14.00;99.90;;;;;;4999184;28;20540;-72
2023/03/24 11:21:43;;;;;;;3.93;2.90;;;13.90;99.90;;;;;;5003531;28;20558;-72
2023/03/24 11:24:29;;;;;;;3.70;2.70;;;13.80;99.90;;;;;;4994130;28;20442;-72
2023/03/24 11:27:17;;;;;;;3.53;3.03;;;13.70;99.90;;;;;;4997026;28;21211;-72
2023/03/24 11:30:03;;;;;;;3.80;1.83;;;13.60;99.90;;;;;;5003885;28;20458;-72
2023/03/24 11:32:49;;;;;;;2.90;2.20;;;13.50;99.90;;;;;;4999010;28;20686;-72
2023/03/24 11:35:34;;;;;;;2.33;1.53;;;13.40;99.90;;;;;;5000541;28;20625;-71
2023/03/24 11:38:29;;;;;;;1.90;1.20;;;13.40;99.90;;;;;;5000549;28;21116;-71
2023/03/24 11:41:21;;;;;;;2.20;1.50;;;13.30;99.90;;;;;;4996791;28;20429;-72
2023/03/24 11:44:19;;;;;;;5.73;1.07;;;13.40;99.90;;;;;;4999172;28;20431;-72
2023/03/24 11:47:10;;;;;;;3.10;1.20;;;13.30;99.90;;;;;;5003650;28;20825;-72
2023/03/24 11:50:03;;;;;;;1.50;1.00;;;13.40;99.90;;;;;;5001829;28;20451;-72
2023/03/24 11:52:54;;;;;;;2.90;1.37;;;13.50;99.90;;;;;;5001810;28;20514;-72
2023/03/24 11:55:49;;;;;;;3.23;1.20;;;13.50;99.90;;;;;;4996029;28;20535;-72
2023/03/24 11:58:40;;;;;;;1.87;1.30;;;13.50;99.90;;;;;;5000941;28;20488;-72
2023/03/24 12:01:30;;;;;;;2.23;0.97;;;13.50;99.90;;;;;;4997380;28;20418;-72
2023/03/24 12:04:36;;;;;;;2.53;1.20;;;13.50;99.90;;;;;;4998368;28;20478;-72
2023/03/24 12:07:43;;;;;;;2.37;1.00;;;13.50;99.90;;;;;;4999888;28;20443;-72
2023/03/24 12:10:40;;;;;;;2.20;1.00;;;13.50;99.90;;;;;;5002909;28;20967;-72
2023/03/24 12:13:35;;;;;;;2.10;1.40;;;13.60;99.90;;;;;;5003075;28;20451;-72
2023/03/24 12:16:37;;;;;;;2.20;1.07;;;13.50;99.90;;;;;;5010876;28;20415;-72
2023/03/24 12:19:42;;;;;;;2.60;1.40;;;13.50;99.90;;;;;;4998842;28;20496;-72
2023/03/24 12:22:41;;;;;;;3.80;1.83;;;13.50;99.90;;;;;;5003594;28;20474;-71
2023/03/24 12:25:42;;;;;;;3.10;1.70;;;13.60;99.90;;;;;;5004190;28;20481;-71
2023/03/24 12:28:46;;;;;;;20.60;9.03;;;13.60;99.90;;;;;;5005427;28;20451;-71
2023/03/24 12:31:55;;;;;;;10.43;3.67;;;13.50;99.90;;;;;;5005523;28;20442;-71
2023/03/24 12:35:23;;;;;;;17.53;7.87;;;13.60;99.90;;;;;;4966591;28;20454;-71
2023/03/24 12:38:33;;;;;;;13.20;6.10;;;13.70;99.90;;;;;;4998880;28;21067;-71
2023/03/24 12:41:32;;;;;;;6.90;3.23;;;13.70;99.90;;;;;;5002121;28;21174;-71
2023/03/24 12:44:54;;;;;;;3.73;1.97;;;13.90;99.90;;;;;;5004058;28;20569;-71
2023/03/24 12:48:04;;;;;;;6.60;2.73;;;14.10;99.90;;;;;;5004822;28;20442;-71
2023/03/24 12:50:59;;;;;;;6.80;2.50;;;14.30;99.90;;;;;;5005629;28;20585;-72
2023/03/24 12:53:59;;;;;;;2.27;1.43;;;14.50;99.90;;;;;;5006949;28;20556;-71
2023/03/24 12:56:50;;;;;;;3.57;1.63;;;14.50;99.90;;;;;;5001866;28;20420;-71
2023/03/24 12:59:41;;;;;;;4.27;1.80;;;14.50;99.90;;;;;;5003340;28;20477;-71
2023/03/24 13:02:30;;;;;;;2.87;1.60;;;14.50;99.90;;;;;;4998562;28;20547;-71
2023/03/24 13:05:22;;;;;;;3.93;1.60;;;14.50;99.90;;;;;;5003269;28;20979;-71
2023/03/24 13:08:15;;;;;;;5.53;1.20;;;14.50;99.90;;;;;;5000018;28;20435;-71
2023/03/24 13:11:06;;;;;;;2.07;1.50;;;14.60;99.90;;;;;;4998042;28;20437;-71
2023/03/24 13:13:55;;;;;;;2.67;1.40;;;14.70;99.90;;;;;;5004593;28;20436;-71
2023/03/24 13:16:42;;;;;;;12.07;1.17;;;14.80;99.90;;;;;;5001468;28;20495;-71
2023/03/24 13:19:28;;;;;;;4.10;1.40;;;15.00;99.90;;;;;;5003645;28;20453;-71
2023/03/24 13:22:20;;;;;;;3.20;1.80;;;15.20;99.90;;;;;;4997977;28;20981;-71
2023/03/24 13:25:15;;;;;;;3.67;2.27;;;15.50;99.90;;;;;;5008014;28;20467;-72
2023/03/24 13:28:07;;;;;;;3.73;1.90;;;15.60;99.90;;;;;;4993166;28;20452;-72
2023/03/24 13:30:53;;;;;;;3.90;2.00;;;15.60;99.90;;;;;;4999862;28;20426;-72
2023/03/24 13:33:42;;;;;;;5.90;2.00;;;15.60;99.90;;;;;;5001473;28;21115;-72
2023/03/24 13:36:41;;;;;;;3.43;1.70;;;15.60;99.90;;;;;;4999610;28;20847;-72
2023/03/24 13:39:30;;;;;;;3.73;2.13;;;15.70;99.90;;;;;;5005317;28;20455;-72
2023/03/24 13:42:30;;;;;;;3.40;2.13;;;15.70;99.90;;;;;;5000499;28;20456;-72
2023/03/24 13:45:40;;;;;;;3.73;2.53;;;15.70;99.90;;;;;;5000393;28;20454;-72
2023/03/24 13:48:31;;;;;;;3.73;2.50;;;15.70;99.90;;;;;;5003843;28;20504;-72
2023/03/24 13:51:19;;;;;;;2.97;2.00;;;15.60;99.90;;;;;;5004914;28;20421;-72
2023/03/24 13:54:07;;;;;;;4.43;3.20;;;15.50;99.90;;;;;;5003931;28;20470;-72
2023/03/24 13:57:00;;;;;;;5.10;3.00;;;15.60;99.90;;;;;;4998253;28;20452;-72
2023/03/24 14:00:05;;;;;;;4.10;2.03;;;15.50;99.90;;;;;;5004415;28;20489;-72
2023/03/24 14:02:52;;;;;;;2.50;1.90;;;15.40;99.90;;;;;;5002635;28;20508;-72
2023/03/24 14:05:56;;;;;;;4.07;2.20;;;15.40;99.90;;;;;;5010458;28;20454;-72
2023/03/24 14:08:53;;;;;;;3.10;1.70;;;15.30;99.90;;;;;;5006687;28;20436;-72
2023/03/24 14:11:50;;;;;;;5.30;2.40;;;15.40;99.00;;;;;;5000386;28;20398;-72
2023/03/24 14:15:13;;;;;;;5.60;2.10;;;15.50;97.30;;;;;;5011183;28;20410;-72
2023/03/24 14:18:15;;;;;;;4.90;2.17;;;16.00;89.60;;;;;;5008902;28;20765;-72
2023/03/24 14:21:03;;;;;;;3.70;1.90;;;16.30;78.60;;;;;;5007648;28;20540;-72
2023/03/24 14:23:52;;;;;;;7.03;1.70;;;16.40;78.70;;;;;;5002854;28;20444;-72
2023/03/24 14:26:37;;;;;;;3.60;2.00;;;16.40;76.20;;;;;;5000383;28;20468;-72
2023/03/24 14:29:47;;;;;;;6.77;1.57;;;16.10;74.30;;;;;;5002012;28;21055;-72
2023/03/24 14:32:38;;;;;;;3.13;1.63;;;16.20;75.40;;;;;;5010082;28;20463;-71
2023/03/24 14:35:36;;;;;;;3.93;2.00;;;16.40;76.40;;;;;;5007864;28;21546;-72
2023/03/24 14:38:26;;;;;;;5.43;1.73;;;16.90;76.80;;;;;;5011260;28;20960;-72
2023/03/24 14:41:15;;;;;;;5.20;1.80;;;17.30;72.40;;;;;;5002310;28;20511;-72
2023/03/24 14:44:01;;;;;;;4.87;1.77;;;17.90;71.30;;;;;;4991480;28;20407;-72
2023/03/24 14:46:50;;;;;;;5.70;1.60;;;18.40;69.70;;;;;;4998235;28;20455;-72